createdAt,value
2022-10-10T00:00:53.930Z,6.52
2022-10-10T00:01:53.943Z,6.51
2022-10-10T00:02:53.937Z,6.50
2022-10-10T00:03:53.896Z,6.49
2022-10-10T00:04:53.884Z,6.50
2022-10-10T00:05:53.868Z,6.50
2022-10-10T00:06:53.854Z,6.50
2022-10-10T00:07:53.876Z,6.50
2022-10-10T00:08:53.831Z,6.48
2022-10-10T00:09:53.807Z,6.48
2022-10-10T00:10:54.965Z,6.48
2022-10-10T00:11:53.805Z,6.48
2022-10-10T00:12:53.872Z,6.48
2022-10-10T00:13:53.758Z,6.47
2022-10-10T00:14:53.750Z,6.46
2022-10-10T00:15:53.747Z,6.45
2022-10-10T00:16:53.744Z,6.44
2022-10-10T00:17:53.729Z,6.42
2022-10-10T00:18:53.715Z,6.39
2022-10-10T00:19:53.686Z,6.38
2022-10-10T00:20:53.689Z,6.37
2022-10-10T00:21:53.670Z,6.36
2022-10-10T00:22:54.024Z,6.34
2022-10-10T00:23:53.665Z,6.32
2022-10-10T00:24:53.634Z,6.31
2022-10-10T00:25:53.596Z,6.29
2022-10-10T00:26:53.619Z,6.27
2022-10-10T00:27:53.577Z,6.25
2022-10-10T00:28:53.565Z,6.25
2022-10-10T00:29:53.561Z,6.23
2022-10-10T00:30:53.560Z,6.21
2022-10-10T00:31:53.517Z,6.21
2022-10-10T00:32:53.547Z,6.23
2022-10-10T00:33:53.502Z,6.27
2022-10-10T00:34:53.503Z,6.29
2022-10-10T00:35:53.479Z,6.30
2022-10-10T00:36:53.460Z,6.30
2022-10-10T00:37:53.457Z,6.30
2022-10-10T00:38:53.459Z,6.29
2022-10-10T00:39:53.437Z,6.26
2022-10-10T00:40:53.412Z,6.23
2022-10-10T00:41:53.421Z,6.21
2022-10-10T00:42:53.837Z,6.19
2022-10-10T00:43:53.384Z,6.19
2022-10-10T00:44:53.353Z,6.18
2022-10-10T00:45:53.334Z,6.18
2022-10-10T00:46:53.359Z,6.17
2022-10-10T00:47:53.331Z,6.16
2022-10-10T00:48:53.303Z,6.17
2022-10-10T00:49:53.303Z,6.20
2022-10-10T00:50:53.310Z,6.23
2022-10-10T00:51:53.296Z,6.26
2022-10-10T00:52:53.527Z,6.28
2022-10-10T00:53:53.235Z,6.29
2022-10-10T00:54:53.248Z,6.30
2022-10-10T00:55:53.232Z,6.30
2022-10-10T00:56:53.196Z,6.28
2022-10-10T00:57:53.184Z,6.26
2022-10-10T00:58:53.173Z,6.22
2022-10-10T00:59:53.152Z,6.20
2022-10-10T01:00:53.247Z,6.18
2022-10-10T01:01:53.126Z,6.17
2022-10-10T01:02:53.469Z,6.16
2022-10-10T01:03:53.098Z,6.14
2022-10-10T01:04:53.105Z,6.12
2022-10-10T01:05:53.090Z,6.11
2022-10-10T01:06:53.065Z,6.10
2022-10-10T01:07:53.065Z,6.10
2022-10-10T01:08:53.061Z,6.08
2022-10-10T01:09:53.165Z,6.07
2022-10-10T01:10:53.018Z,6.06
2022-10-10T01:11:53.028Z,6.04
2022-10-10T01:12:53.282Z,6.01
2022-10-10T01:13:52.976Z,5.98
2022-10-10T01:14:52.979Z,5.95
2022-10-10T01:15:52.962Z,5.92
2022-10-10T01:16:52.949Z,5.90
2022-10-10T01:17:52.928Z,5.87
2022-10-10T01:18:52.909Z,5.87
2022-10-10T01:19:52.939Z,5.89
2022-10-10T01:20:52.904Z,5.91
2022-10-10T01:21:52.879Z,5.91
2022-10-10T01:22:53.165Z,5.89
2022-10-10T01:23:52.835Z,5.87
2022-10-10T01:24:52.846Z,5.86
2022-10-10T01:25:52.827Z,5.85
2022-10-10T01:26:52.819Z,5.86
2022-10-10T01:27:52.794Z,5.87
2022-10-10T01:28:52.778Z,5.88
2022-10-10T01:29:52.781Z,5.89
2022-10-10T01:30:52.755Z,5.91
2022-10-10T01:31:52.751Z,5.93
2022-10-10T01:32:53.288Z,5.96
2022-10-10T01:33:52.723Z,5.98
2022-10-10T01:34:52.732Z,5.99
2022-10-10T01:35:52.696Z,6.00
2022-10-10T01:36:52.697Z,6.01
2022-10-10T01:37:52.670Z,6.03
2022-10-10T01:38:52.647Z,6.03
2022-10-10T01:39:52.665Z,6.03
2022-10-10T01:40:52.621Z,6.02
2022-10-10T01:41:52.603Z,6.01
2022-10-10T01:42:52.903Z,5.98
2022-10-10T01:43:52.572Z,5.94
2022-10-10T01:44:52.601Z,5.93
2022-10-10T01:45:52.568Z,5.93
2022-10-10T01:46:52.540Z,5.93
2022-10-10T01:47:52.524Z,5.92
2022-10-10T01:48:52.537Z,5.90
2022-10-10T01:49:52.497Z,5.88
2022-10-10T01:50:52.503Z,5.86
2022-10-10T01:51:52.470Z,5.85
2022-10-10T01:52:52.821Z,5.85
2022-10-10T01:53:52.461Z,5.86
2022-10-10T01:54:52.459Z,5.86
2022-10-10T01:55:52.441Z,5.86
2022-10-10T01:56:52.454Z,5.85
2022-10-10T01:57:52.391Z,5.84
2022-10-10T01:58:52.384Z,5.81
2022-10-10T01:59:52.367Z,5.78
2022-10-10T02:00:52.436Z,5.75
2022-10-10T02:01:52.341Z,5.73
2022-10-10T02:02:52.758Z,5.71
2022-10-10T02:03:52.338Z,5.69
2022-10-10T02:04:52.324Z,5.66
2022-10-10T02:05:52.314Z,5.62
2022-10-10T02:06:52.298Z,5.56
2022-10-10T02:07:52.261Z,5.51
2022-10-10T02:08:52.293Z,5.46
2022-10-10T02:09:52.260Z,5.42
2022-10-10T02:10:52.250Z,5.38
2022-10-10T02:11:52.253Z,5.35
2022-10-10T02:12:52.697Z,5.33
2022-10-10T02:13:52.193Z,5.31
2022-10-10T02:14:52.190Z,5.29
2022-10-10T02:15:52.159Z,5.27
2022-10-10T02:16:52.150Z,5.24
2022-10-10T02:17:52.146Z,5.22
2022-10-10T02:18:52.144Z,5.20
2022-10-10T02:19:52.146Z,5.18
2022-10-10T02:20:52.104Z,5.17
2022-10-10T02:21:52.095Z,5.14
2022-10-10T02:22:52.324Z,5.12
2022-10-10T02:23:52.060Z,5.11
2022-10-10T02:24:52.067Z,5.10
2022-10-10T02:25:52.047Z,5.09
2022-10-10T02:26:52.034Z,5.07
2022-10-10T02:27:52.016Z,5.05
2022-10-10T02:28:52.020Z,5.04
2022-10-10T02:29:51.989Z,5.03
2022-10-10T02:30:51.986Z,5.01
2022-10-10T02:31:51.947Z,5.01
2022-10-10T02:32:52.422Z,5.02
2022-10-10T02:33:51.942Z,5.00
2022-10-10T02:34:51.952Z,4.99
2022-10-10T02:35:51.920Z,4.98
2022-10-10T02:36:51.908Z,4.98
2022-10-10T02:37:51.874Z,4.98
2022-10-10T02:38:51.863Z,4.96
2022-10-10T02:39:51.864Z,4.93
2022-10-10T02:40:51.846Z,4.89
2022-10-10T02:41:51.840Z,4.89
2022-10-10T02:42:52.089Z,4.90
2022-10-10T02:43:51.805Z,4.90
2022-10-10T02:44:51.807Z,4.91
2022-10-10T02:45:51.764Z,4.92
2022-10-10T02:46:51.791Z,4.92
2022-10-10T02:47:51.753Z,4.91
2022-10-10T02:48:51.727Z,4.90
2022-10-10T02:49:51.727Z,4.89
2022-10-10T02:50:51.738Z,4.87
2022-10-10T02:51:51.702Z,4.86
2022-10-10T02:52:52.160Z,4.86
2022-10-10T02:53:51.677Z,4.87
2022-10-10T02:54:51.659Z,4.88
2022-10-10T02:55:51.634Z,4.88
2022-10-10T02:56:51.652Z,4.87
2022-10-10T02:57:51.609Z,4.88
2022-10-10T02:58:51.601Z,4.88
2022-10-10T02:59:51.629Z,4.87
2022-10-10T03:00:51.615Z,4.86
2022-10-10T03:01:51.563Z,4.87
2022-10-10T03:02:51.872Z,4.89
2022-10-10T03:03:51.532Z,4.89
2022-10-10T03:04:51.538Z,4.90
2022-10-10T03:05:51.503Z,4.90
2022-10-10T03:06:51.525Z,4.91
2022-10-10T03:07:51.518Z,4.91
2022-10-10T03:08:51.466Z,4.91
2022-10-10T03:09:51.451Z,4.93
2022-10-10T03:10:51.447Z,4.95
2022-10-10T03:11:51.429Z,4.97
2022-10-10T03:12:51.853Z,4.98
2022-10-10T03:13:51.411Z,4.98
2022-10-10T03:14:51.512Z,4.98
2022-10-10T03:15:51.370Z,5.00
2022-10-10T03:16:51.392Z,5.01
2022-10-10T03:17:51.384Z,4.99
2022-10-10T03:18:51.355Z,4.97
2022-10-10T03:19:51.346Z,4.96
2022-10-10T03:20:51.329Z,4.96
2022-10-10T03:21:51.310Z,4.98
2022-10-10T03:22:51.674Z,4.99
2022-10-10T03:23:51.283Z,4.99
2022-10-10T03:24:51.277Z,4.98
2022-10-10T03:25:51.240Z,4.99
2022-10-10T03:26:51.253Z,5.00
2022-10-10T03:27:51.240Z,5.01
2022-10-10T03:28:51.223Z,4.99
2022-10-10T03:29:51.222Z,4.99
2022-10-10T03:30:51.197Z,5.01
2022-10-10T03:31:51.193Z,5.05
2022-10-10T03:32:51.431Z,5.08
2022-10-10T03:33:51.137Z,5.08
2022-10-10T03:34:51.141Z,5.07
2022-10-10T03:35:51.109Z,5.06
2022-10-10T03:36:51.105Z,5.05
2022-10-10T03:37:51.092Z,5.02
2022-10-10T03:38:51.071Z,5.00
2022-10-10T03:39:51.073Z,4.97
2022-10-10T03:40:51.065Z,4.94
2022-10-10T03:41:51.056Z,4.92
2022-10-10T03:42:51.310Z,4.90
2022-10-10T03:43:51.029Z,4.88
2022-10-10T03:44:51.069Z,4.87
2022-10-10T03:45:50.991Z,4.87
2022-10-10T03:46:50.984Z,4.87
2022-10-10T03:47:51.003Z,4.86
2022-10-10T03:48:50.961Z,4.83
2022-10-10T03:49:50.962Z,4.80
2022-10-10T03:50:50.916Z,4.79
2022-10-10T03:51:50.927Z,4.79
2022-10-10T03:52:51.166Z,4.79
2022-10-10T03:53:50.893Z,4.79
2022-10-10T03:54:50.875Z,4.77
2022-10-10T03:55:50.862Z,4.76
2022-10-10T03:56:50.839Z,4.76
2022-10-10T03:57:50.862Z,4.76
2022-10-10T03:58:50.815Z,4.76
2022-10-10T03:59:50.814Z,4.76
2022-10-10T04:00:50.795Z,4.74
2022-10-10T04:01:50.796Z,4.71
2022-10-10T04:02:51.084Z,4.67
2022-10-10T04:03:52.257Z,4.64
2022-10-10T04:04:50.729Z,4.62
2022-10-10T04:05:50.750Z,4.64
2022-10-10T04:06:50.724Z,4.70
2022-10-10T04:07:50.721Z,4.72
2022-10-10T04:08:50.705Z,4.71
2022-10-10T04:09:50.681Z,4.71
2022-10-10T04:10:50.655Z,4.69
2022-10-10T04:11:50.654Z,4.68
2022-10-10T04:12:50.835Z,4.68
2022-10-10T04:13:50.640Z,4.68
2022-10-10T04:14:50.623Z,4.67
2022-10-10T04:15:50.608Z,4.67
2022-10-10T04:16:50.594Z,4.69
2022-10-10T04:17:50.568Z,4.70
2022-10-10T04:18:50.570Z,4.69
2022-10-10T04:19:50.547Z,4.67
2022-10-10T04:20:50.545Z,4.66
2022-10-10T04:21:50.540Z,4.65
2022-10-10T04:22:50.733Z,4.64
2022-10-10T04:23:50.488Z,4.62
2022-10-10T04:24:50.496Z,4.63
2022-10-10T04:25:50.482Z,4.64
2022-10-10T04:26:50.446Z,4.63
2022-10-10T04:27:50.453Z,4.61
2022-10-10T04:28:50.441Z,4.59
2022-10-10T04:29:50.436Z,4.58
2022-10-10T04:30:50.404Z,4.58
2022-10-10T04:31:50.425Z,4.58
2022-10-10T04:32:50.642Z,4.58
2022-10-10T04:33:50.382Z,4.59
2022-10-10T04:34:50.344Z,4.61
2022-10-10T04:35:50.376Z,4.63
2022-10-10T04:36:50.315Z,4.67
2022-10-10T04:37:50.340Z,4.73
2022-10-10T04:38:50.303Z,4.78
2022-10-10T04:39:50.323Z,4.81
2022-10-10T04:40:50.285Z,4.83
2022-10-10T04:41:50.278Z,4.82
2022-10-10T04:42:50.506Z,4.79
2022-10-10T04:43:50.246Z,4.76
2022-10-10T04:44:50.238Z,4.76
2022-10-10T04:45:50.223Z,4.75
2022-10-10T04:46:50.186Z,4.75
2022-10-10T04:47:50.211Z,4.75
2022-10-10T04:48:50.160Z,4.77
2022-10-10T04:49:50.156Z,4.78
2022-10-10T04:50:50.156Z,4.79
2022-10-10T04:51:50.135Z,4.80
2022-10-10T04:52:50.357Z,4.81
2022-10-10T04:53:50.672Z,4.80
2022-10-10T04:54:50.082Z,4.80
2022-10-10T04:55:50.079Z,4.80
2022-10-10T04:56:50.069Z,4.81
2022-10-10T04:57:50.066Z,4.81
2022-10-10T04:58:50.047Z,4.81
2022-10-10T04:59:50.045Z,4.81
2022-10-10T05:00:50.018Z,4.80
2022-10-10T05:01:50.024Z,4.79
2022-10-10T05:02:50.317Z,4.77
2022-10-10T05:03:49.988Z,4.73
2022-10-10T05:04:49.970Z,4.69
2022-10-10T05:05:49.981Z,4.65
2022-10-10T05:06:49.934Z,4.61
2022-10-10T05:07:55.156Z,4.58
2022-10-10T05:08:49.941Z,4.56
2022-10-10T05:09:49.890Z,4.55
2022-10-10T05:10:49.901Z,4.54
2022-10-10T05:11:49.867Z,4.54
2022-10-10T05:12:50.147Z,4.53
2022-10-10T05:13:49.841Z,4.53
2022-10-10T05:14:49.831Z,4.53
2022-10-10T05:15:49.835Z,4.52
2022-10-10T05:16:49.814Z,4.49
2022-10-10T05:17:49.808Z,4.47
2022-10-10T05:18:49.788Z,4.47
2022-10-10T05:19:49.766Z,4.48
2022-10-10T05:20:49.760Z,4.51
2022-10-10T05:21:49.753Z,4.53
2022-10-10T05:22:50.082Z,4.55
2022-10-10T05:23:49.711Z,4.56
2022-10-10T05:24:49.708Z,4.59
2022-10-10T05:25:49.716Z,4.61
2022-10-10T05:26:49.665Z,4.63
2022-10-10T05:27:49.674Z,4.64
2022-10-10T05:28:49.668Z,4.66
2022-10-10T05:29:49.632Z,4.67
2022-10-10T05:30:49.612Z,4.67
2022-10-10T05:31:49.625Z,4.68
2022-10-10T05:32:49.954Z,4.68
2022-10-10T05:33:49.609Z,4.68
2022-10-10T05:34:49.560Z,4.67
2022-10-10T05:35:49.576Z,4.67
2022-10-10T05:36:49.550Z,4.67
2022-10-10T05:37:49.533Z,4.67
2022-10-10T05:38:49.529Z,4.68
2022-10-10T05:39:54.376Z,4.69
2022-10-10T05:40:49.501Z,4.69
2022-10-10T05:41:49.494Z,4.69
2022-10-10T05:42:49.780Z,4.67
2022-10-10T05:43:49.458Z,4.65
2022-10-10T05:44:49.456Z,4.65
2022-10-10T05:45:49.419Z,4.65
2022-10-10T05:46:49.419Z,4.64
2022-10-10T05:47:49.424Z,4.65
2022-10-10T05:48:49.380Z,4.66
2022-10-10T05:49:49.378Z,4.67
2022-10-10T05:50:49.372Z,4.67
2022-10-10T05:51:49.400Z,4.66
2022-10-10T05:52:49.731Z,4.65
2022-10-10T05:53:49.354Z,4.65
2022-10-10T05:54:49.312Z,4.69
2022-10-10T05:55:49.311Z,4.73
2022-10-10T05:56:49.294Z,4.76
2022-10-10T05:57:49.284Z,4.78
2022-10-10T05:58:49.246Z,4.80
2022-10-10T05:59:49.248Z,4.82
2022-10-10T06:00:49.240Z,4.83
2022-10-10T06:01:49.211Z,4.85
2022-10-10T06:02:49.642Z,4.88
2022-10-10T06:03:49.206Z,4.92
2022-10-10T06:04:49.195Z,4.97
2022-10-10T06:05:49.178Z,5.02
2022-10-10T06:06:49.179Z,5.07
2022-10-10T06:08:09.186Z,5.11
2022-10-10T06:08:49.126Z,5.16
2022-10-10T06:09:49.118Z,5.22
2022-10-10T06:10:49.102Z,5.25
2022-10-10T06:11:49.090Z,5.27
2022-10-10T06:12:49.434Z,5.30
2022-10-10T06:13:49.076Z,5.32
2022-10-10T06:14:49.054Z,5.34
2022-10-10T06:15:49.048Z,5.35
2022-10-10T06:16:49.013Z,5.37
2022-10-10T06:17:49.029Z,5.39
2022-10-10T06:18:49.003Z,5.40
2022-10-10T06:19:48.998Z,5.41
2022-10-10T06:20:48.988Z,5.42
2022-10-10T06:21:48.975Z,5.41
2022-10-10T06:22:49.251Z,5.40
2022-10-10T06:23:48.926Z,5.39
2022-10-10T06:24:52.906Z,5.37
2022-10-10T06:25:48.898Z,5.35
2022-10-10T06:26:48.882Z,5.33
2022-10-10T06:27:48.901Z,5.31
2022-10-10T06:28:48.914Z,5.28
2022-10-10T06:29:48.866Z,5.26
2022-10-10T06:30:48.834Z,5.25
2022-10-10T06:31:49.085Z,5.24
2022-10-10T06:32:50.845Z,5.24
2022-10-10T06:33:48.810Z,5.26
2022-10-10T06:34:48.785Z,5.28
2022-10-10T06:35:48.766Z,5.30
2022-10-10T06:36:48.767Z,5.31
2022-10-10T06:37:48.742Z,5.32
2022-10-10T06:38:48.740Z,5.31
2022-10-10T06:39:48.748Z,5.31
2022-10-10T06:40:48.715Z,5.33
2022-10-10T06:41:48.713Z,5.37
2022-10-10T06:42:48.986Z,5.41
2022-10-10T06:43:48.680Z,5.47
2022-10-10T06:44:48.671Z,5.54
2022-10-10T06:45:48.635Z,5.63
2022-10-10T06:46:48.652Z,5.72
2022-10-10T06:47:48.637Z,5.81
2022-10-10T06:48:48.620Z,5.91
2022-10-10T06:49:48.608Z,6.01
2022-10-10T06:50:48.569Z,6.10
2022-10-10T06:51:48.584Z,6.17
2022-10-10T06:52:48.899Z,6.24
2022-10-10T06:53:48.552Z,6.31
2022-10-10T06:54:48.517Z,6.38
2022-10-10T06:55:48.534Z,6.44
2022-10-10T06:56:48.514Z,6.50
2022-10-10T06:57:48.480Z,6.57
2022-10-10T06:58:48.471Z,6.62
2022-10-10T06:59:48.474Z,6.67
2022-10-10T07:00:48.435Z,6.71
2022-10-10T07:01:48.500Z,6.76
2022-10-10T07:02:48.731Z,6.80
2022-10-10T07:03:48.430Z,6.83
2022-10-10T07:04:48.400Z,6.86
2022-10-10T07:05:48.374Z,6.91
2022-10-10T07:06:48.364Z,6.98
2022-10-10T07:07:48.359Z,7.06
2022-10-10T07:08:48.329Z,7.14
2022-10-10T07:09:48.328Z,7.21
2022-10-10T07:10:48.313Z,7.28
2022-10-10T07:11:48.320Z,7.35
2022-10-10T07:12:48.302Z,7.39
2022-10-10T07:13:48.270Z,7.42
2022-10-10T07:14:48.303Z,7.45
2022-10-10T07:15:48.249Z,7.46
2022-10-10T07:16:48.227Z,7.46
2022-10-10T07:17:53.415Z,7.47
2022-10-10T07:18:48.207Z,7.50
2022-10-10T07:19:48.215Z,7.53
2022-10-10T07:20:48.205Z,7.54
2022-10-10T07:21:48.164Z,7.52
2022-10-10T07:22:48.360Z,7.51
2022-10-10T07:23:48.140Z,7.50
2022-10-10T07:24:48.144Z,7.49
2022-10-10T07:25:48.130Z,7.47
2022-10-10T07:26:48.137Z,7.43
2022-10-10T07:27:48.119Z,7.40
2022-10-10T07:28:48.112Z,7.38
2022-10-10T07:29:48.059Z,7.36
2022-10-10T07:30:48.072Z,7.35
2022-10-10T07:31:48.051Z,7.36
2022-10-10T07:32:48.300Z,7.37
2022-10-10T07:33:50.429Z,7.40
2022-10-10T07:34:47.987Z,7.43
2022-10-10T07:35:47.974Z,7.45
2022-10-10T07:36:47.965Z,7.46
2022-10-10T07:37:47.968Z,7.47
2022-10-10T07:38:47.956Z,7.49
2022-10-10T07:39:47.926Z,7.52
2022-10-10T07:40:47.919Z,7.54
2022-10-10T07:41:47.934Z,7.58
2022-10-10T07:42:48.005Z,7.61
2022-10-10T07:43:47.931Z,7.64
2022-10-10T07:44:47.918Z,7.67
2022-10-10T07:45:47.868Z,7.71
2022-10-10T07:46:47.864Z,7.75
2022-10-10T07:47:47.992Z,7.79
2022-10-10T07:48:47.826Z,7.86
2022-10-10T07:49:47.806Z,7.95
2022-10-10T07:50:47.795Z,8.06
2022-10-10T07:51:47.798Z,8.20
2022-10-10T07:52:47.748Z,8.34
2022-10-10T07:53:47.754Z,8.48
2022-10-10T07:54:47.773Z,8.57
2022-10-10T07:55:47.708Z,8.62
2022-10-10T07:56:47.720Z,8.64
2022-10-10T07:57:52.498Z,8.67
2022-10-10T07:58:47.688Z,8.70
2022-10-10T07:59:47.690Z,8.75
2022-10-10T08:00:47.664Z,8.83
2022-10-10T08:01:47.678Z,8.90
2022-10-10T08:02:47.624Z,8.94
2022-10-10T08:03:47.682Z,8.95
2022-10-10T08:04:47.663Z,8.98
2022-10-10T08:05:47.652Z,8.98
2022-10-10T08:06:47.649Z,8.95
2022-10-10T08:07:47.563Z,8.92
2022-10-10T08:08:51.386Z,8.92
2022-10-10T08:09:47.565Z,8.91
2022-10-10T08:10:47.536Z,8.93
2022-10-10T08:11:47.573Z,8.95
2022-10-10T08:12:47.531Z,9.00
2022-10-10T08:13:47.493Z,9.03
2022-10-10T08:14:47.513Z,9.04
2022-10-10T08:15:47.448Z,9.03
2022-10-10T08:16:47.476Z,9.02
2022-10-10T08:17:47.466Z,9.00
2022-10-10T08:18:47.426Z,8.99
2022-10-10T08:19:47.420Z,8.99
2022-10-10T08:20:47.409Z,8.99
2022-10-10T08:21:47.423Z,9.01
2022-10-10T08:22:47.364Z,9.06
2022-10-10T08:23:47.374Z,9.12
2022-10-10T08:24:47.350Z,9.18
2022-10-10T08:25:47.335Z,9.24
2022-10-10T08:26:47.321Z,9.30
2022-10-10T08:27:47.320Z,9.36
2022-10-10T08:28:47.387Z,9.41
2022-10-10T08:29:47.286Z,9.47
2022-10-10T08:30:47.274Z,9.56
2022-10-10T08:31:47.250Z,9.64
2022-10-10T08:32:47.237Z,9.69
2022-10-10T08:33:47.216Z,9.72
2022-10-10T08:34:47.281Z,9.78
2022-10-10T08:35:47.180Z,9.93
2022-10-10T08:36:47.171Z,10.22
2022-10-10T08:37:47.172Z,10.55
2022-10-10T08:38:47.165Z,10.92
2022-10-10T08:39:47.209Z,11.12
2022-10-10T08:40:47.155Z,11.22
2022-10-10T08:41:47.159Z,11.37
2022-10-10T08:42:52.527Z,11.46
2022-10-10T08:43:47.116Z,11.45
2022-10-10T08:44:47.108Z,11.40
2022-10-10T08:45:47.065Z,11.41
2022-10-10T08:46:47.060Z,11.53
2022-10-10T08:47:47.058Z,11.65
2022-10-10T08:48:47.036Z,11.63
2022-10-10T08:49:48.009Z,11.62
2022-10-10T08:50:47.039Z,11.79
2022-10-10T08:51:47.010Z,11.99
2022-10-10T08:52:47.020Z,12.06
2022-10-10T08:53:47.043Z,12.01
2022-10-10T08:54:47.063Z,11.85
2022-10-10T08:55:46.964Z,11.64
2022-10-10T08:56:46.950Z,11.54
2022-10-10T08:57:46.944Z,11.55
2022-10-10T08:58:46.987Z,11.71
2022-10-10T08:59:46.931Z,12.07
2022-10-10T09:00:46.948Z,12.51
2022-10-10T09:02:18.666Z,12.80
2022-10-10T09:02:54.629Z,12.84
2022-10-10T09:03:46.953Z,12.81
2022-10-10T09:04:46.848Z,12.69
2022-10-10T09:05:46.818Z,12.35
2022-10-10T09:06:46.799Z,11.96
2022-10-10T09:07:46.773Z,11.63
2022-10-10T09:08:46.751Z,11.46
2022-10-10T09:09:46.755Z,11.41
2022-10-10T09:10:46.724Z,11.45
2022-10-10T09:11:46.730Z,11.67
2022-10-10T09:12:46.723Z,11.85
2022-10-10T09:13:46.679Z,11.88
2022-10-10T09:14:46.688Z,12.01
2022-10-10T09:15:46.648Z,12.22
2022-10-10T09:16:46.700Z,12.41
2022-10-10T09:17:46.734Z,12.57
2022-10-10T09:18:46.652Z,12.68
2022-10-10T09:19:46.601Z,12.82
2022-10-10T09:20:46.588Z,12.91
2022-10-10T09:21:46.591Z,12.85
2022-10-10T09:22:46.641Z,12.78
2022-10-10T09:23:46.574Z,12.86
2022-10-10T09:24:46.535Z,13.11
2022-10-10T09:25:46.520Z,13.41
2022-10-10T09:26:46.511Z,13.61
2022-10-10T09:27:46.509Z,13.61
2022-10-10T09:28:46.562Z,13.54
2022-10-10T09:29:46.470Z,13.53
2022-10-10T09:30:46.459Z,13.62
2022-10-10T09:31:46.481Z,13.79
2022-10-10T09:32:46.442Z,13.97
2022-10-10T09:33:46.435Z,14.20
2022-10-10T09:34:46.417Z,14.37
2022-10-10T09:35:46.406Z,14.63
2022-10-10T09:36:46.402Z,15.02
2022-10-10T09:37:47.919Z,15.26
2022-10-10T09:38:46.374Z,15.25
2022-10-10T09:39:46.346Z,15.27
2022-10-10T09:40:46.349Z,15.27
2022-10-10T09:41:46.324Z,15.07
2022-10-10T09:42:46.323Z,14.82
2022-10-10T09:43:46.312Z,14.79
2022-10-10T09:44:46.323Z,14.98
2022-10-10T09:45:46.277Z,14.93
2022-10-10T09:46:46.262Z,14.68
2022-10-10T09:47:46.243Z,14.67
2022-10-10T09:48:46.222Z,14.78
2022-10-10T09:49:46.289Z,14.70
2022-10-10T09:50:46.213Z,14.55
2022-10-10T09:51:46.246Z,14.37
2022-10-10T09:52:46.208Z,14.14
2022-10-10T09:53:46.181Z,13.79
2022-10-10T09:54:46.145Z,13.54
2022-10-10T09:55:46.178Z,13.43
2022-10-10T09:56:46.137Z,13.33
2022-10-10T09:57:46.133Z,13.20
2022-10-10T09:58:46.138Z,13.05
2022-10-10T09:59:46.175Z,12.95
2022-10-10T10:00:46.139Z,12.95
2022-10-10T10:01:46.094Z,13.01
2022-10-10T10:02:46.042Z,13.07
2022-10-10T10:03:46.035Z,13.15
2022-10-10T10:04:46.032Z,13.16
2022-10-10T10:05:45.989Z,13.06
2022-10-10T10:06:45.982Z,12.97
2022-10-10T10:07:45.991Z,13.07
2022-10-10T10:08:49.856Z,13.30
2022-10-10T10:09:45.954Z,13.46
2022-10-10T10:10:45.937Z,13.53
2022-10-10T10:11:45.941Z,13.59
2022-10-10T10:12:45.915Z,13.72
2022-10-10T10:13:45.906Z,13.87
2022-10-10T10:14:45.889Z,14.03
2022-10-10T10:15:45.860Z,14.07
2022-10-10T10:16:45.851Z,13.99
2022-10-10T10:17:45.831Z,13.96
2022-10-10T10:18:45.850Z,14.03
2022-10-10T10:19:45.927Z,14.18
2022-10-10T10:20:45.798Z,14.32
2022-10-10T10:21:45.783Z,14.36
2022-10-10T10:22:45.855Z,14.34
2022-10-10T10:23:45.754Z,14.43
2022-10-10T10:24:45.749Z,14.61
2022-10-10T10:25:45.725Z,14.77
2022-10-10T10:26:45.750Z,14.81
2022-10-10T10:27:45.699Z,14.70
2022-10-10T10:28:45.789Z,14.57
2022-10-10T10:29:45.673Z,14.54
2022-10-10T10:30:45.672Z,14.56
2022-10-10T10:31:45.646Z,14.50
2022-10-10T10:32:45.662Z,14.33
2022-10-10T10:33:45.626Z,14.15
2022-10-10T10:34:45.628Z,14.12
2022-10-10T10:35:45.609Z,14.09
2022-10-10T10:36:45.606Z,13.94
2022-10-10T10:37:45.572Z,13.82
2022-10-10T10:38:45.559Z,13.76
2022-10-10T10:39:45.556Z,13.81
2022-10-10T10:40:45.537Z,14.07
2022-10-10T10:41:45.764Z,14.51
2022-10-10T10:42:45.547Z,15.07
2022-10-10T10:43:45.497Z,15.65
2022-10-10T10:44:45.482Z,16.23
2022-10-10T10:45:45.462Z,16.73
2022-10-10T10:46:45.474Z,16.81
2022-10-10T10:47:45.460Z,16.54
2022-10-10T10:48:45.448Z,16.18
2022-10-10T10:49:45.430Z,15.85
2022-10-10T10:50:45.425Z,15.52
2022-10-10T10:51:45.402Z,15.20
2022-10-10T10:52:45.394Z,14.94
2022-10-10T10:53:45.368Z,14.80
2022-10-10T10:54:45.653Z,14.83
2022-10-10T10:55:45.334Z,14.84
2022-10-10T10:56:45.352Z,14.75
2022-10-10T10:58:22.397Z,14.60
2022-10-10T11:00:32.995Z,14.56
2022-10-10T11:01:28.003Z,14.86
2022-10-10T11:01:56.041Z,15.35
2022-10-10T11:02:59.548Z,15.94
2022-10-10T11:05:19.393Z,16.59
2022-10-10T11:05:40.569Z,17.14
2022-10-10T11:05:46.223Z,17.56
2022-10-10T11:06:59.955Z,17.59
2022-10-10T11:07:45.259Z,17.34
2022-10-10T11:08:45.227Z,17.24
2022-10-10T11:09:50.109Z,17.28
2022-10-10T11:10:45.172Z,17.40
2022-10-10T11:11:45.120Z,17.62
2022-10-10T11:12:45.123Z,17.86
2022-10-10T11:13:45.112Z,18.09
2022-10-10T11:14:45.122Z,18.18
2022-10-10T11:16:05.481Z,18.19
2022-10-10T11:16:48.455Z,18.14
2022-10-10T11:17:45.043Z,18.07
2022-10-10T11:18:45.072Z,18.04
2022-10-10T11:19:45.037Z,17.83
2022-10-10T11:20:45.049Z,17.49
2022-10-10T11:21:44.998Z,17.17
2022-10-10T11:32:22.058Z,17.26
2022-10-10T11:32:27.707Z,17.38
2022-10-10T11:33:27.685Z,17.56
2022-10-10T11:34:27.702Z,17.93
2022-10-10T11:35:27.669Z,18.39
2022-10-10T11:36:27.653Z,18.79
2022-10-10T11:37:27.621Z,18.88
2022-10-10T11:38:27.645Z,18.46
2022-10-10T11:39:27.584Z,17.78
2022-10-10T11:40:27.578Z,17.34
2022-10-10T11:41:27.563Z,17.21
2022-10-10T11:42:27.564Z,17.12
2022-10-10T11:43:27.562Z,17.15
2022-10-10T11:44:27.517Z,17.36
2022-10-10T11:45:27.523Z,17.71
2022-10-10T11:46:27.522Z,18.02
2022-10-10T11:47:27.475Z,18.08
2022-10-10T11:48:27.505Z,18.07
2022-10-10T11:49:27.449Z,18.00
2022-10-10T11:50:27.485Z,17.91
2022-10-10T11:51:27.441Z,17.91
2022-10-10T11:52:35.127Z,18.08
2022-10-10T11:53:27.407Z,18.40
2022-10-10T11:54:27.397Z,18.54
2022-10-10T11:55:27.379Z,18.52
2022-10-10T11:56:27.401Z,18.33
2022-10-10T11:57:27.370Z,18.16
2022-10-10T11:58:27.338Z,18.10
2022-10-10T11:59:27.345Z,17.95
2022-10-10T12:00:27.330Z,17.82
2022-10-10T12:01:27.295Z,17.76
2022-10-10T12:02:28.131Z,17.83
2022-10-10T12:03:27.301Z,18.10
2022-10-10T12:04:27.271Z,18.42
2022-10-10T12:05:27.246Z,18.65
2022-10-10T12:06:27.260Z,18.87
2022-10-10T12:07:27.241Z,19.00
2022-10-10T12:08:27.215Z,19.02
2022-10-10T12:09:27.217Z,18.95
2022-10-10T12:10:27.218Z,18.81
2022-10-10T12:11:27.201Z,18.60
2022-10-10T12:12:27.284Z,18.52
2022-10-10T12:13:27.183Z,18.57
2022-10-10T12:14:27.141Z,18.52
2022-10-10T12:15:27.136Z,18.55
2022-10-10T12:16:30.570Z,18.69
2022-10-10T12:17:27.118Z,18.57
2022-10-10T12:18:27.094Z,18.43
2022-10-10T12:19:27.067Z,18.43
2022-10-10T12:20:27.059Z,18.50
2022-10-10T12:21:27.069Z,18.40
2022-10-10T12:22:27.040Z,18.27
2022-10-10T12:23:27.052Z,18.43
2022-10-10T12:24:27.037Z,18.81
2022-10-10T12:25:27.020Z,19.10
2022-10-10T12:26:26.994Z,19.05
2022-10-10T12:27:26.999Z,18.66
2022-10-10T12:28:27.053Z,18.27
2022-10-10T12:29:26.957Z,18.17
2022-10-10T12:30:26.953Z,18.22
2022-10-10T12:31:26.977Z,18.12
2022-10-10T12:32:26.915Z,17.91
2022-10-10T12:33:26.921Z,17.84
2022-10-10T12:34:26.886Z,17.86
2022-10-10T12:35:26.887Z,17.89
2022-10-10T12:36:26.880Z,17.93
2022-10-10T12:37:26.850Z,17.92
2022-10-10T12:38:26.943Z,17.89
2022-10-10T12:39:26.870Z,17.99
2022-10-10T12:40:26.827Z,18.28
2022-10-10T12:41:26.790Z,18.53
2022-10-10T12:42:26.796Z,18.71
2022-10-10T12:43:26.785Z,18.90
2022-10-10T12:44:26.813Z,19.19
2022-10-10T12:45:26.775Z,19.57
2022-10-10T12:46:26.738Z,19.94
2022-10-10T12:47:46.281Z,20.19
2022-10-10T12:48:26.726Z,20.11
2022-10-10T12:49:26.678Z,19.80
2022-10-10T12:50:26.702Z,19.42
2022-10-10T12:51:26.659Z,19.18
2022-10-10T12:52:26.647Z,19.01
2022-10-10T12:53:26.674Z,18.76
2022-10-10T12:54:26.866Z,18.58
2022-10-10T12:55:26.612Z,18.56
2022-10-10T12:56:26.602Z,18.70
2022-10-10T12:57:26.576Z,19.04
2022-10-10T12:58:27.861Z,19.35
2022-10-10T12:59:26.579Z,19.43
2022-10-10T13:00:26.531Z,19.33
2022-10-10T13:01:26.610Z,19.19
2022-10-10T13:02:26.506Z,18.97
2022-10-10T13:03:26.499Z,18.86
2022-10-10T13:04:26.561Z,19.00
2022-10-10T13:05:26.469Z,19.28
2022-10-10T13:06:26.472Z,19.37
2022-10-10T13:07:26.468Z,19.40
2022-10-10T13:08:26.446Z,19.40
2022-10-10T13:09:29.922Z,19.44
2022-10-10T13:10:26.448Z,19.37
2022-10-10T13:11:26.432Z,19.11
2022-10-10T13:12:26.396Z,18.94
2022-10-10T13:13:26.372Z,19.10
2022-10-10T13:14:26.349Z,19.30
2022-10-10T13:15:26.342Z,19.28
2022-10-10T13:16:29.897Z,19.15
2022-10-10T13:17:26.360Z,18.99
2022-10-10T13:18:26.295Z,18.92
2022-10-10T13:19:26.319Z,19.04